sensor_id;sensor_type;location;lat;lon;timestamp;pressure;altitude;pressure_sealevel;temperature;humidity
12801;BME280;6464;42.494;27.470;2023-08-17T04:01:27;99553.59;;;24.98;100.00
12801;BME280;6464;42.494;27.470;2023-08-17T04:03:54;99549.78;;;25.00;100.00
12801;BME280;6464;42.494;27.470;2023-08-17T04:06:21;99535.56;;;24.98;100.00
12801;BME280;6464;42.494;27.470;2023-08-17T04:08:48;99542.34;;;25.12;100.00
12801;BME280;6464;42.494;27.470;2023-08-17T04:11:14;99514.25;;;25.05;100.00
12801;BME280;6464;42.494;27.470;2023-08-17T04:13:41;99491.50;;;25.17;100.00
12801;BME280;6464;42.494;27.470;2023-08-17T04:16:08;99390.91;;;24.79;100.00
12801;BME280;6464;42.494;27.470;2023-08-17T04:18:36;99416.78;;;25.18;100.00
12801;BME280;6464;42.494;27.470;2023-08-17T04:21:03;99428.06;;;25.31;100.00
12801;BME280;6464;42.494;27.470;2023-08-17T04:23:30;99402.69;;;25.42;100.00
12801;BME280;6464;42.494;27.470;2023-08-17T04:25:57;99384.81;;;25.41;100.00
12801;BME280;6464;42.494;27.470;2023-08-17T04:28:24;99230.69;;;24.64;100.00
12801;BME280;6464;42.494;27.470;2023-08-17T04:30:51;99367.34;;;25.53;100.00
12801;BME280;6464;42.494;27.470;2023-08-17T04:33:18;99299.00;;;25.26;100.00
12801;BME280;6464;42.494;27.470;2023-08-17T04:35:47;99347.69;;;25.60;100.00
12801;BME280;6464;42.494;27.470;2023-08-17T04:38:14;99290.38;;;25.23;100.00
12801;BME280;6464;42.494;27.470;2023-08-17T04:40:41;99348.22;;;25.64;100.00
12801;BME280;6464;42.494;27.470;2023-08-17T04:43:09;99281.19;;;25.33;100.00
12801;BME280;6464;42.494;27.470;2023-08-17T04:45:36;99357.63;;;25.78;100.00
12801;BME280;6464;42.494;27.470;2023-08-17T04:48:04;99357.16;;;25.82;100.00
12801;BME280;6464;42.494;27.470;2023-08-17T04:50:31;99353.56;;;25.82;100.00
12801;BME280;6464;42.494;27.470;2023-08-17T04:53:00;99355.44;;;25.81;100.00
12801;BME280;6464;42.494;27.470;2023-08-17T04:55:27;99352.44;;;25.84;100.00
12801;BME280;6464;42.494;27.470;2023-08-17T04:57:53;99329.78;;;25.77;100.00
12801;BME280;6464;42.494;27.470;2023-08-17T05:00:21;99280.00;;;25.54;100.00
12801;BME280;6464;42.494;27.470;2023-08-17T05:02:53;99312.00;;;25.75;100.00
12801;BME280;6464;42.494;27.470;2023-08-17T05:05:20;99353.03;;;26.04;100.00
12801;BME280;6464;42.494;27.470;2023-08-17T05:07:47;99332.94;;;25.99;100.00
12801;BME280;6464;42.494;27.470;2023-08-17T05:10:15;99342.28;;;26.12;100.00
12801;BME280;6464;42.494;27.470;2023-08-17T05:12:42;99263.88;;;25.70;100.00
12801;BME280;6464;42.494;27.470;2023-08-17T05:15:09;99331.00;;;26.17;100.00
12801;BME280;6464;42.494;27.470;2023-08-17T05:17:36;99306.28;;;26.04;100.00
12801;BME280;6464;42.494;27.470;2023-08-17T05:20:04;99337.78;;;26.29;100.00
12801;BME280;6464;42.494;27.470;2023-08-17T05:22:32;99333.44;;;26.36;100.00
12801;BME280;6464;42.494;27.470;2023-08-17T05:24:59;99236.31;;;25.84;100.00
12801;BME280;6464;42.494;27.470;2023-08-17T05:27:28;99328.47;;;26.50;100.00
12801;BME280;6464;42.494;27.470;2023-08-17T05:29:54;99334.84;;;26.49;100.00
12801;BME280;6464;42.494;27.470;2023-08-17T05:32:21;99294.22;;;26.32;100.00
12801;BME280;6464;42.494;27.470;2023-08-17T05:34:48;99358.28;;;26.82;100.00
12801;BME280;6464;42.494;27.470;2023-08-17T05:37:15;99316.31;;;26.62;100.00
12801;BME280;6464;42.494;27.470;2023-08-17T05:39:42;99351.00;;;26.83;100.00
12801;BME280;6464;42.494;27.470;2023-08-17T05:42:09;99379.94;;;27.07;100.00
12801;BME280;6464;42.494;27.470;2023-08-17T05:44:37;99378.09;;;26.99;100.00
12801;BME280;6464;42.494;27.470;2023-08-17T05:47:04;99404.38;;;27.15;100.00
12801;BME280;6464;42.494;27.470;2023-08-17T05:49:31;99393.13;;;27.02;100.00
12801;BME280;6464;42.494;27.470;2023-08-17T05:51:58;99428.41;;;27.26;100.00
12801;BME280;6464;42.494;27.470;2023-08-17T05:54:25;99408.75;;;27.16;100.00
12801;BME280;6464;42.494;27.470;2023-08-17T05:56:52;99444.34;;;27.37;100.00
12801;BME280;6464;42.494;27.470;2023-08-17T05:59:19;99462.59;;;27.35;100.00
12801;BME280;6464;42.494;27.470;2023-08-17T06:01:47;99467.19;;;27.43;100.00
12801;BME280;6464;42.494;27.470;2023-08-17T06:04:14;99461.59;;;27.45;100.00
12801;BME280;6464;42.494;27.470;2023-08-17T06:06:41;99479.19;;;27.49;100.00
12801;BME280;6464;42.494;27.470;2023-08-17T06:09:08;99461.94;;;27.50;100.00
12801;BME280;6464;42.494;27.470;2023-08-17T06:11:35;99471.06;;;27.65;100.00
12801;BME280;6464;42.494;27.470;2023-08-17T06:14:02;99467.25;;;27.76;100.00
12801;BME280;6464;42.494;27.470;2023-08-17T06:16:28;99487.38;;;27.81;100.00
12801;BME280;6464;42.494;27.470;2023-08-17T06:18:57;99506.00;;;27.84;100.00
12801;BME280;6464;42.494;27.470;2023-08-17T06:21:24;99574.09;;;28.06;100.00
12801;BME280;6464;42.494;27.470;2023-08-17T06:23:51;99573.25;;;28.05;100.00
12801;BME280;6464;42.494;27.470;2023-08-17T06:26:17;99518.03;;;27.82;100.00
12801;BME280;6464;42.494;27.470;2023-08-17T06:28:45;99584.94;;;28.06;100.00
12801;BME280;6464;42.494;27.470;2023-08-17T06:31:14;99588.31;;;28.16;100.00
12801;BME280;6464;42.494;27.470;2023-08-17T06:33:41;99566.81;;;28.23;100.00
12801;BME280;6464;42.494;27.470;2023-08-17T06:36:09;99566.81;;;28.23;100.00
12801;BME280;6464;42.494;27.470;2023-08-17T06:38:38;99542.91;;;28.18;100.00
12801;BME280;6464;42.494;27.470;2023-08-17T06:41:05;99487.38;;;27.98;100.00
12801;BME280;6464;42.494;27.470;2023-08-17T06:43:32;99469.25;;;27.98;100.00
12801;BME280;6464;42.494;27.470;2023-08-17T06:45:59;99420.31;;;27.83;100.00
12801;BME280;6464;42.494;27.470;2023-08-17T06:48:27;99440.31;;;27.82;100.00
12801;BME280;6464;42.494;27.470;2023-08-17T06:50:54;99437.91;;;28.04;100.00
12801;BME280;6464;42.494;27.470;2023-08-17T06:53:22;99408.09;;;28.12;100.00
12801;BME280;6464;42.494;27.470;2023-08-17T06:55:49;99410.47;;;28.15;100.00
12801;BME280;6464;42.494;27.470;2023-08-17T06:58:16;99425.16;;;28.29;100.00
12801;BME280;6464;42.494;27.470;2023-08-17T07:00:43;99428.38;;;28.40;100.00
12801;BME280;6464;42.494;27.470;2023-08-17T07:03:10;99428.16;;;28.50;100.00
12801;BME280;6464;42.494;27.470;2023-08-17T07:05:37;99456.25;;;28.65;100.00
12801;BME280;6464;42.494;27.470;2023-08-17T07:08:05;99463.03;;;28.69;100.00
12801;BME280;6464;42.494;27.470;2023-08-17T07:10:33;99466.88;;;28.83;100.00
12801;BME280;6464;42.494;27.470;2023-08-17T07:13:00;99482.97;;;28.85;100.00
12801;BME280;6464;42.494;27.470;2023-08-17T07:15:29;99509.91;;;28.94;100.00
12801;BME280;6464;42.494;27.470;2023-08-17T07:17:55;99515.84;;;28.90;100.00
12801;BME280;6464;42.494;27.470;2023-08-17T07:20:22;99516.66;;;29.07;100.00
12801;BME280;6464;42.494;27.470;2023-08-17T07:22:49;99546.84;;;29.12;100.00
12801;BME280;6464;42.494;27.470;2023-08-17T07:25:16;99562.53;;;29.25;100.00
12801;BME280;6464;42.494;27.470;2023-08-17T07:27:44;99569.41;;;29.12;100.00
12801;BME280;6464;42.494;27.470;2023-08-17T07:30:12;99613.66;;;29.21;100.00
12801;BME280;6464;42.494;27.470;2023-08-17T07:32:39;99603.00;;;29.11;100.00
12801;BME280;6464;42.494;27.470;2023-08-17T07:35:07;99604.09;;;29.33;100.00
12801;BME280;6464;42.494;27.470;2023-08-17T07:37:33;99639.16;;;29.51;100.00
12801;BME280;6464;42.494;27.470;2023-08-17T07:40:01;99672.25;;;29.63;100.00
12801;BME280;6464;42.494;27.470;2023-08-17T07:42:29;99684.97;;;29.70;100.00
12801;BME280;6464;42.494;27.470;2023-08-17T07:44:58;99720.25;;;29.79;100.00
12801;BME280;6464;42.494;27.470;2023-08-17T07:47:25;99690.16;;;29.80;100.00
12801;BME280;6464;42.494;27.470;2023-08-17T07:49:51;99645.38;;;29.68;100.00
12801;BME280;6464;42.494;27.470;2023-08-17T07:52:18;99663.28;;;29.93;100.00
12801;BME280;6464;42.494;27.470;2023-08-17T07:54:46;99686.75;;;29.86;100.00
12801;BME280;6464;42.494;27.470;2023-08-17T07:57:13;99744.06;;;30.08;100.00
12801;BME280;6464;42.494;27.470;2023-08-17T07:59:39;99731.53;;;29.99;100.00
12801;BME280;6464;42.494;27.470;2023-08-17T08:02:08;99784.16;;;30.06;100.00
12801;BME280;6464;42.494;27.470;2023-08-17T08:04:35;99812.34;;;30.21;100.00
12801;BME280;6464;42.494;27.470;2023-08-17T08:07:02;99797.41;;;30.09;100.00
12801;BME280;6464;42.494;27.470;2023-08-17T08:09:28;99782.81;;;30.02;100.00
12801;BME280;6464;42.494;27.470;2023-08-17T08:11:55;99751.63;;;29.89;100.00
12801;BME280;6464;42.494;27.470;2023-08-17T08:14:22;99730.00;;;29.57;100.00
12801;BME280;6464;42.494;27.470;2023-08-17T08:16:49;99775.78;;;29.84;100.00
12801;BME280;6464;42.494;27.470;2023-08-17T08:19:17;99790.53;;;29.82;100.00
12801;BME280;6464;42.494;27.470;2023-08-17T08:21:44;99801.94;;;29.77;100.00
12801;BME280;6464;42.494;27.470;2023-08-17T08:24:11;99765.47;;;29.63;100.00
12801;BME280;6464;42.494;27.470;2023-08-17T08:26:38;99912.84;;;29.98;100.00
12801;BME280;6464;42.494;27.470;2023-08-17T08:29:05;99895.50;;;29.91;100.00
12801;BME280;6464;42.494;27.470;2023-08-17T08:31:32;99847.41;;;29.91;100.00
12801;BME280;6464;42.494;27.470;2023-08-17T08:33:58;99822.00;;;29.76;100.00
12801;BME280;6464;42.494;27.470;2023-08-17T08:36:27;99797.00;;;29.81;100.00
12801;BME280;6464;42.494;27.470;2023-08-17T08:38:53;99819.91;;;29.94;100.00
12801;BME280;6464;42.494;27.470;2023-08-17T08:41:21;99858.88;;;29.70;100.00
12801;BME280;6464;42.494;27.470;2023-08-17T08:43:48;99842.38;;;29.80;100.00
12801;BME280;6464;42.494;27.470;2023-08-17T08:46:16;99795.31;;;29.80;100.00
12801;BME280;6464;42.494;27.470;2023-08-17T08:49:03;99748.19;;;29.56;100.00
12801;BME280;6464;42.494;27.470;2023-08-17T08:51:38;99745.25;;;29.66;100.00
12801;BME280;6464;42.494;27.470;2023-08-17T08:54:10;99794.16;;;29.74;100.00
12801;BME280;6464;42.494;27.470;2023-08-17T08:56:42;99851.50;;;29.95;100.00
12801;BME280;6464;42.494;27.470;2023-08-17T08:59:10;99838.34;;;30.07;100.00
12801;BME280;6464;42.494;27.470;2023-08-17T09:01:57;99877.50;;;30.45;100.00
12801;BME280;6464;42.494;27.470;2023-08-17T09:04:25;99889.16;;;30.62;100.00
12801;BME280;6464;42.494;27.470;2023-08-17T09:06:54;99905.31;;;30.72;100.00
12801;BME280;6464;42.494;27.470;2023-08-17T09:09:22;99963.84;;;30.99;100.00
12801;BME280;6464;42.494;27.470;2023-08-17T09:11:49;99833.81;;;30.70;100.00
12801;BME280;6464;42.494;27.470;2023-08-17T09:14:16;99869.53;;;31.06;100.00
12801;BME280;6464;42.494;27.470;2023-08-17T09:16:43;99872.44;;;31.05;100.00
12801;BME280;6464;42.494;27.470;2023-08-17T09:19:10;99917.34;;;31.32;100.00
12801;BME280;6464;42.494;27.470;2023-08-17T09:21:37;99964.22;;;31.27;100.00
12801;BME280;6464;42.494;27.470;2023-08-17T09:24:07;99870.50;;;30.90;100.00
12801;BME280;6464;42.494;27.470;2023-08-17T09:26:34;99855.47;;;30.94;100.00
12801;BME280;6464;42.494;27.470;2023-08-17T09:29:16;99749.69;;;30.60;100.00
12801;BME280;6464;42.494;27.470;2023-08-17T09:31:43;99716.59;;;30.57;100.00
12801;BME280;6464;42.494;27.470;2023-08-17T09:34:10;99700.13;;;30.50;100.00
12801;BME280;6464;42.494;27.470;2023-08-17T09:36:37;99712.97;;;30.41;100.00
12801;BME280;6464;42.494;27.470;2023-08-17T09:39:05;99694.13;;;30.55;100.00
12801;BME280;6464;42.494;27.470;2023-08-17T09:41:38;99862.47;;;31.58;100.00
12801;BME280;6464;42.494;27.470;2023-08-17T09:44:06;100160.41;;;32.96;100.00
12801;BME280;6464;42.494;27.470;2023-08-17T09:46:33;100326.75;;;33.52;100.00
12801;BME280;6464;42.494;27.470;2023-08-17T09:49:02;100385.78;;;33.61;100.00
12801;BME280;6464;42.494;27.470;2023-08-17T09:51:30;100497.56;;;33.93;100.00
12801;BME280;6464;42.494;27.470;2023-08-17T09:53:57;100533.03;;;34.10;100.00
12801;BME280;6464;42.494;27.470;2023-08-17T09:56:26;100561.69;;;34.51;100.00
12801;BME280;6464;42.494;27.470;2023-08-17T09:58:54;100611.19;;;34.65;100.00
12801;BME280;6464;42.494;27.470;2023-08-17T10:01:21;100642.69;;;34.98;100.00
12801;BME280;6464;42.494;27.470;2023-08-17T10:03:50;100634.25;;;34.85;100.00
12801;BME280;6464;42.494;27.470;2023-08-17T10:06:22;100678.88;;;35.23;100.00
12801;BME280;6464;42.494;27.470;2023-08-17T10:08:52;100722.09;;;35.51;100.00
12801;BME280;6464;42.494;27.470;2023-08-17T10:11:22;100715.19;;;35.25;100.00
12801;BME280;6464;42.494;27.470;2023-08-17T10:13:56;100804.16;;;35.82;100.00
12801;BME280;6464;42.494;27.470;2023-08-17T10:16:35;100717.81;;;35.34;100.00
12801;BME280;6464;42.494;27.470;2023-08-17T10:19:07;100759.44;;;35.52;100.00
12801;BME280;6464;42.494;27.470;2023-08-17T10:21:39;100738.63;;;35.58;100.00
12801;BME280;6464;42.494;27.470;2023-08-17T10:24:07;100660.47;;;35.02;100.00
12801;BME280;6464;42.494;27.470;2023-08-17T10:26:34;100722.44;;;35.63;100.00
12801;BME280;6464;42.494;27.470;2023-08-17T10:29:03;100706.66;;;35.65;100.00
12801;BME280;6464;42.494;27.470;2023-08-17T10:31:34;100658.38;;;35.05;100.00
12801;BME280;6464;42.494;27.470;2023-08-17T10:34:01;100518.03;;;34.35;100.00
12801;BME280;6464;42.494;27.470;2023-08-17T10:36:30;100198.25;;;32.84;100.00
12801;BME280;6464;42.494;27.470;2023-08-17T10:39:23;100022.72;;;32.61;100.00
12801;BME280;6464;42.494;27.470;2023-08-17T10:41:53;100332.78;;;34.21;100.00
12801;BME280;6464;42.494;27.470;2023-08-17T10:44:38;100380.31;;;34.49;100.00
12801;BME280;6464;42.494;27.470;2023-08-17T10:47:28;100371.59;;;34.10;100.00
12801;BME280;6464;42.494;27.470;2023-08-17T10:49:56;100469.59;;;34.80;100.00
12801;BME280;6464;42.494;27.470;2023-08-17T10:52:28;100296.25;;;33.84;100.00
12801;BME280;6464;42.494;27.470;2023-08-17T10:54:55;100188.59;;;33.41;100.00
12801;BME280;6464;42.494;27.470;2023-08-17T10:57:30;100263.06;;;33.87;100.00
12801;BME280;6464;42.494;27.470;2023-08-17T11:00:13;100463.63;;;34.76;100.00
12801;BME280;6464;42.494;27.470;2023-08-17T11:02:43;100442.47;;;34.85;100.00
12801;BME280;6464;42.494;27.470;2023-08-17T11:05:11;100474.59;;;34.76;100.00
12801;BME280;6464;42.494;27.470;2023-08-17T11:07:40;100294.38;;;33.70;100.00
12801;BME280;6464;42.494;27.470;2023-08-17T11:10:27;100092.97;;;32.96;100.00
12801;BME280;6464;42.494;27.470;2023-08-17T11:12:55;99957.81;;;32.04;100.00
12801;BME280;6464;42.494;27.470;2023-08-17T11:15:30;99875.69;;;31.84;100.00
12801;BME280;6464;42.494;27.470;2023-08-17T11:18:03;100018.97;;;32.91;100.00
12801;BME280;6464;42.494;27.470;2023-08-17T11:20:30;100263.34;;;33.92;100.00
12801;BME280;6464;42.494;27.470;2023-08-17T11:22:58;100466.28;;;34.85;100.00
12801;BME280;6464;42.494;27.470;2023-08-17T11:25:25;100454.19;;;34.79;100.00
12801;BME280;6464;42.494;27.470;2023-08-17T11:27:53;100634.03;;;35.61;100.00
12801;BME280;6464;42.494;27.470;2023-08-17T11:30:20;100663.94;;;36.13;100.00
12801;BME280;6464;42.494;27.470;2023-08-17T11:32:49;100591.75;;;35.55;100.00
12801;BME280;6464;42.494;27.470;2023-08-17T11:35:16;100739.22;;;36.25;100.00
12801;BME280;6464;42.494;27.470;2023-08-17T11:37:44;100629.38;;;35.61;100.00
12801;BME280;6464;42.494;27.470;2023-08-17T11:40:11;100501.25;;;35.19;100.00
12801;BME280;6464;42.494;27.470;2023-08-17T11:42:38;100593.28;;;35.79;100.00
12801;BME280;6464;42.494;27.470;2023-08-17T11:45:06;100621.66;;;36.08;100.00
12801;BME280;6464;42.494;27.470;2023-08-17T11:47:34;100518.03;;;35.67;100.00
12801;BME280;6464;42.494;27.470;2023-08-17T11:50:03;100540.53;;;35.41;100.00
12801;BME280;6464;42.494;27.470;2023-08-17T11:52:32;100547.94;;;35.83;100.00
12801;BME280;6464;42.494;27.470;2023-08-17T11:54:59;100504.41;;;35.37;100.00
12801;BME280;6464;42.494;27.470;2023-08-17T11:57:26;100400.09;;;35.24;100.00
12801;BME280;6464;42.494;27.470;2023-08-17T11:59:54;100486.56;;;35.91;100.00
12801;BME280;6464;42.494;27.470;2023-08-17T12:02:22;100523.38;;;35.96;100.00
12801;BME280;6464;42.494;27.470;2023-08-17T12:04:50;100543.19;;;36.20;100.00
12801;BME280;6464;42.494;27.470;2023-08-17T12:07:19;100541.53;;;36.25;100.00
12801;BME280;6464;42.494;27.470;2023-08-17T12:09:48;100302.59;;;35.15;100.00
12801;BME280;6464;42.494;27.470;2023-08-17T12:12:17;100248.69;;;35.22;100.00
12801;BME280;6464;42.494;27.470;2023-08-17T12:14:46;100268.59;;;35.37;100.00
12801;BME280;6464;42.494;27.470;2023-08-17T12:17:16;100264.19;;;35.64;100.00
12801;BME280;6464;42.494;27.470;2023-08-17T12:19:44;100241.91;;;35.18;100.00
12801;BME280;6464;42.494;27.470;2023-08-17T12:22:12;100217.97;;;35.33;100.00
12801;BME280;6464;42.494;27.470;2023-08-17T12:24:41;100288.72;;;35.79;100.00
12801;BME280;6464;42.494;27.470;2023-08-17T12:27:09;100303.06;;;35.74;100.00
12801;BME280;6464;42.494;27.470;2023-08-17T12:29:46;100257.34;;;35.53;100.00
12801;BME280;6464;42.494;27.470;2023-08-17T12:32:14;100080.34;;;34.75;100.00
12801;BME280;6464;42.494;27.470;2023-08-17T12:34:40;99927.81;;;33.78;100.00
12801;BME280;6464;42.494;27.470;2023-08-17T12:37:08;99789.50;;;33.34;100.00
12801;BME280;6464;42.494;27.470;2023-08-17T12:39:35;99841.34;;;34.05;100.00
12801;BME280;6464;42.494;27.470;2023-08-17T12:42:04;99989.22;;;34.25;100.00
12801;BME280;6464;42.494;27.470;2023-08-17T12:44:31;100198.69;;;34.92;100.00
12801;BME280;6464;42.494;27.470;2023-08-17T12:46:58;100168.72;;;34.84;100.00
12801;BME280;6464;42.494;27.470;2023-08-17T12:49:25;100349.44;;;35.69;100.00
12801;BME280;6464;42.494;27.470;2023-08-17T12:51:52;100372.34;;;35.83;100.00
12801;BME280;6464;42.494;27.470;2023-08-17T12:54:19;100169.53;;;34.56;100.00
12801;BME280;6464;42.494;27.470;2023-08-17T12:56:46;100008.84;;;34.00;100.00
12801;BME280;6464;42.494;27.470;2023-08-17T12:59:14;99711.66;;;32.53;100.00
12801;BME280;6464;42.494;27.470;2023-08-17T13:01:41;99613.22;;;32.11;100.00
12801;BME280;6464;42.494;27.470;2023-08-17T13:04:08;99446.63;;;31.63;100.00
12801;BME280;6464;42.494;27.470;2023-08-17T13:06:35;99351.72;;;31.24;100.00
12801;BME280;6464;42.494;27.470;2023-08-17T13:09:02;99314.41;;;31.03;100.00
12801;BME280;6464;42.494;27.470;2023-08-17T13:11:29;99305.41;;;31.03;100.00
12801;BME280;6464;42.494;27.470;2023-08-17T13:13:56;99307.88;;;30.97;100.00
12801;BME280;6464;42.494;27.470;2023-08-17T13:16:24;99248.00;;;30.40;100.00
12801;BME280;6464;42.494;27.470;2023-08-17T13:18:51;99208.81;;;30.56;100.00
12801;BME280;6464;42.494;27.470;2023-08-17T13:21:18;99259.59;;;30.70;100.00
12801;BME280;6464;42.494;27.470;2023-08-17T13:23:45;99217.75;;;30.50;100.00
12801;BME280;6464;42.494;27.470;2023-08-17T13:26:12;99202.84;;;30.45;100.00
12801;BME280;6464;42.494;27.470;2023-08-17T13:28:39;99133.56;;;30.20;100.00
12801;BME280;6464;42.494;27.470;2023-08-17T13:31:06;99154.47;;;30.41;100.00
12801;BME280;6464;42.494;27.470;2023-08-17T13:33:34;99159.97;;;30.69;100.00
12801;BME280;6464;42.494;27.470;2023-08-17T13:36:01;99275.66;;;31.01;100.00
12801;BME280;6464;42.494;27.470;2023-08-17T13:38:28;99345.88;;;31.48;100.00
12801;BME280;6464;42.494;27.470;2023-08-17T13:40:55;99400.72;;;31.67;100.00
12801;BME280;6464;42.494;27.470;2023-08-17T13:43:22;99441.22;;;31.70;100.00
12801;BME280;6464;42.494;27.470;2023-08-17T13:45:49;99408.47;;;31.63;100.00
12801;BME280;6464;42.494;27.470;2023-08-17T13:48:16;99525.34;;;32.37;100.00
12801;BME280;6464;42.494;27.470;2023-08-17T13:50:44;99635.44;;;33.00;100.00
12801;BME280;6464;42.494;27.470;2023-08-17T13:53:11;99696.47;;;33.42;100.00
12801;BME280;6464;42.494;27.470;2023-08-17T13:55:38;99793.44;;;33.81;100.00
12801;BME280;6464;42.494;27.470;2023-08-17T13:58:05;99746.94;;;33.46;100.00
12801;BME280;6464;42.494;27.470;2023-08-17T14:00:35;99754.00;;;33.69;100.00
12801;BME280;6464;42.494;27.470;2023-08-17T14:03:02;99816.28;;;33.73;100.00
12801;BME280;6464;42.494;27.470;2023-08-17T14:05:29;99898.94;;;33.97;100.00
12801;BME280;6464;42.494;27.470;2023-08-17T14:07:58;99992.19;;;34.23;100.00
12801;BME280;6464;42.494;27.470;2023-08-17T14:10:24;99965.69;;;34.03;100.00
12801;BME280;6464;42.494;27.470;2023-08-17T14:12:51;99741.91;;;33.22;100.00
12801;BME280;6464;42.494;27.470;2023-08-17T14:15:18;99819.34;;;33.57;100.00
12801;BME280;6464;42.494;27.470;2023-08-17T14:17:45;99814.72;;;33.58;100.00
12801;BME280;6464;42.494;27.470;2023-08-17T14:20:12;99757.84;;;33.18;100.00
12801;BME280;6464;42.494;27.470;2023-08-17T14:22:40;99668.19;;;33.00;100.00
12801;BME280;6464;42.494;27.470;2023-08-17T14:25:08;99701.88;;;33.08;100.00
12801;BME280;6464;42.494;27.470;2023-08-17T14:27:35;99678.72;;;32.82;100.00
12801;BME280;6464;42.494;27.470;2023-08-17T14:30:02;99714.50;;;33.09;100.00
12801;BME280;6464;42.494;27.470;2023-08-17T14:32:29;99736.09;;;33.04;100.00
12801;BME280;6464;42.494;27.470;2023-08-17T14:34:56;99729.63;;;33.11;100.00
12801;BME280;6464;42.494;27.470;2023-08-17T14:37:23;99711.41;;;32.90;100.00
12801;BME280;6464;42.494;27.470;2023-08-17T14:39:50;99825.81;;;33.28;100.00
12801;BME280;6464;42.494;27.470;2023-08-17T14:42:18;99767.78;;;32.98;100.00
12801;BME280;6464;42.494;27.470;2023-08-17T14:44:45;99755.34;;;32.95;100.00
12801;BME280;6464;42.494;27.470;2023-08-17T14:47:12;99686.56;;;32.42;100.00
12801;BME280;6464;42.494;27.470;2023-08-17T14:49:38;99597.88;;;32.10;100.00
12801;BME280;6464;42.494;27.470;2023-08-17T14:52:05;99540.81;;;31.87;100.00
12801;BME280;6464;42.494;27.470;2023-08-17T14:54:32;99580.41;;;32.05;100.00
12801;BME280;6464;42.494;27.470;2023-08-17T14:56:59;99555.75;;;32.13;100.00
12801;BME280;6464;42.494;27.470;2023-08-17T14:59:27;99630.44;;;32.55;100.00
12801;BME280;6464;42.494;27.470;2023-08-17T15:01:54;99588.59;;;32.26;100.00
12801;BME280;6464;42.494;27.470;2023-08-17T15:04:22;99584.19;;;32.04;100.00
12801;BME280;6464;42.494;27.470;2023-08-17T15:06:49;99565.81;;;32.12;100.00
12801;BME280;6464;42.494;27.470;2023-08-17T15:09:15;99674.06;;;32.12;100.00
12801;BME280;6464;42.494;27.470;2023-08-17T15:11:42;99709.06;;;32.66;100.00
12801;BME280;6464;42.494;27.470;2023-08-17T15:14:09;99678.16;;;32.01;100.00
12801;BME280;6464;42.494;27.470;2023-08-17T15:16:37;99664.56;;;32.29;100.00
12801;BME280;6464;42.494;27.470;2023-08-17T15:19:04;99637.94;;;31.88;100.00
12801;BME280;6464;42.494;27.470;2023-08-17T15:21:31;99639.78;;;32.03;100.00
12801;BME280;6464;42.494;27.470;2023-08-17T15:23:58;99717.75;;;31.97;100.00
12801;BME280;6464;42.494;27.470;2023-08-17T15:26:25;99727.47;;;32.21;100.00
12801;BME280;6464;42.494;27.470;2023-08-17T15:28:52;99644.75;;;31.63;100.00
12801;BME280;6464;42.494;27.470;2023-08-17T15:31:18;99659.69;;;32.03;100.00
12801;BME280;6464;42.494;27.470;2023-08-17T15:33:47;99732.38;;;31.81;100.00
12801;BME280;6464;42.494;27.470;2023-08-17T15:36:13;99675.16;;;31.66;100.00
12801;BME280;6464;42.494;27.470;2023-08-17T15:38:43;99787.66;;;31.75;100.00
12801;BME280;6464;42.494;27.470;2023-08-17T15:41:10;99802.06;;;31.69;100.00
12801;BME280;6464;42.494;27.470;2023-08-17T15:43:37;99784.72;;;31.32;100.00
12801;BME280;6464;42.494;27.470;2023-08-17T15:46:04;99687.09;;;31.21;100.00
12801;BME280;6464;42.494;27.470;2023-08-17T15:48:31;99583.41;;;30.78;100.00
12801;BME280;6464;42.494;27.470;2023-08-17T15:51:00;99536.84;;;30.73;100.00
12801;BME280;6464;42.494;27.470;2023-08-17T15:53:27;99467.19;;;30.34;100.00
12801;BME280;6464;42.494;27.470;2023-08-17T15:55:53;99389.47;;;30.02;100.00
12801;BME280;6464;42.494;27.470;2023-08-17T15:58:20;99318.66;;;29.51;100.00
12801;BME280;6464;42.494;27.470;2023-08-17T16:00:47;99306.03;;;29.21;100.00
12801;BME280;6464;42.494;27.470;2023-08-17T16:03:14;99294.84;;;28.92;100.00
12801;BME280;6464;42.494;27.470;2023-08-17T16:05:41;99301.94;;;29.02;100.00
12801;BME280;6464;42.494;27.470;2023-08-17T16:08:09;99284.31;;;28.98;100.00
12801;BME280;6464;42.494;27.470;2023-08-17T16:10:36;99255.56;;;28.80;100.00
12801;BME280;6464;42.494;27.470;2023-08-17T16:13:03;99244.13;;;28.70;100.00
12801;BME280;6464;42.494;27.470;2023-08-17T16:15:30;99230.47;;;28.63;100.00
12801;BME280;6464;42.494;27.470;2023-08-17T16:17:57;99214.13;;;28.49;100.00
12801;BME280;6464;42.494;27.470;2023-08-17T16:20:24;99204.16;;;28.41;100.00
12801;BME280;6464;42.494;27.470;2023-08-17T16:22:54;99167.47;;;28.22;100.00
12801;BME280;6464;42.494;27.470;2023-08-17T16:25:23;99171.53;;;28.26;100.00
12801;BME280;6464;42.494;27.470;2023-08-17T16:27:49;99166.09;;;28.26;100.00
12801;BME280;6464;42.494;27.470;2023-08-17T16:30:16;99161.66;;;28.10;100.00
12801;BME280;6464;42.494;27.470;2023-08-17T16:32:43;99139.47;;;28.07;100.00
12801;BME280;6464;42.494;27.470;2023-08-17T16:35:10;99170.63;;;28.11;100.00
12801;BME280;6464;42.494;27.470;2023-08-17T16:37:37;99158.03;;;28.18;100.00
12801;BME280;6464;42.494;27.470;2023-08-17T16:40:05;99152.59;;;27.95;100.00
12801;BME280;6464;42.494;27.470;2023-08-17T16:42:34;99151.03;;;28.01;100.00
12801;BME280;6464;42.494;27.470;2023-08-17T16:45:01;99166.25;;;28.02;100.00
12801;BME280;6464;42.494;27.470;2023-08-17T16:47:29;99173.09;;;27.89;100.00
12801;BME280;6464;42.494;27.470;2023-08-17T16:49:56;99162.94;;;27.91;100.00
12801;BME280;6464;42.494;27.470;2023-08-17T16:52:22;99197.53;;;27.81;100.00